Time;durP1;ratioP1;P1;durP2;ratioP2;P2;SDS_P1;SDS_P2;PMS_P1;PMS_P2;Temp;Humidity;BMP_temperature;BMP_pressure;BME280_temperature;BME280_humidity;BME280_pressure;Samples;Min_cycle;Max_cycle;Signal;HPM_P1;HPM_P2
2021/10/14 00:00:20;;;;;;;4.53;1.88;;;;;;;17.89;62.77;101667.91;5012433;28;20038;-92
2021/10/14 00:02:46;;;;;;;3.10;1.80;;;;;;;17.87;63.43;101667.16;5012517;28;20072;-93
2021/10/14 00:05:11;;;;;;;2.60;1.77;;;;;;;17.82;63.19;101667.50;5012361;28;20097;-93
2021/10/14 00:07:37;;;;;;;2.78;1.92;;;;;;;17.73;63.42;101663.78;4995122;28;20033;-93
2021/10/14 00:10:04;;;;;;;2.65;1.95;;;;;;;17.63;63.28;101661.00;5012472;28;20111;-93
2021/10/14 00:12:30;;;;;;;2.05;1.95;;;;;;;17.55;63.38;101655.41;5012628;28;20022;-92
2021/10/14 00:14:55;;;;;;;3.58;2.35;;;;;;;17.44;63.30;101650.94;5012263;28;20033;-92
2021/10/14 00:17:21;;;;;;;1.90;1.75;;;;;;;17.43;63.33;101651.06;5012255;28;20096;-93
2021/10/14 00:19:46;;;;;;;3.42;2.03;;;;;;;17.11;63.35;101656.19;4994712;28;20509;-92
2021/10/14 00:22:11;;;;;;;3.70;2.10;;;;;;;17.19;64.01;101646.66;4994676;28;20022;-93
2021/10/14 00:24:37;;;;;;;5.72;2.60;;;;;;;17.17;63.69;101655.72;5012227;28;20108;-92
2021/10/14 00:27:02;;;;;;;3.22;2.17;;;;;;;17.05;63.66;101642.41;5012453;28;20104;-93
2021/10/14 00:29:28;;;;;;;4.10;2.35;;;;;;;17.07;63.82;101660.88;5012333;28;20044;-93
2021/10/14 00:31:53;;;;;;;4.28;2.58;;;;;;;16.99;64.40;101656.13;5012495;28;20116;-92
2021/10/14 00:34:18;;;;;;;3.05;2.65;;;;;;;17.07;64.11;101650.25;4994534;28;20048;-93
2021/10/14 00:36:44;;;;;;;3.08;2.53;;;;;;;17.24;63.84;101651.63;5011887;28;20472;-93
2021/10/14 00:39:09;;;;;;;2.47;2.28;;;;;;;17.24;63.86;101652.47;5012159;28;20022;-93
2021/10/14 00:41:35;;;;;;;3.13;2.65;;;;;;;17.07;64.74;101649.41;5011978;28;20033;-92
2021/10/14 00:44:00;;;;;;;3.30;2.53;;;;;;;17.33;64.48;101658.88;5011975;28;20036;-93
2021/10/14 00:46:26;;;;;;;5.35;3.05;;;;;;;17.33;65.03;101647.41;5011913;28;20468;-93
2021/10/14 00:48:52;;;;;;;4.80;3.33;;;;;;;17.33;65.88;101648.25;4994344;28;20054;-92
2021/10/14 00:51:18;;;;;;;3.72;3.00;;;;;;;17.43;65.62;101645.75;4994502;28;20028;-93
2021/10/14 00:53:45;;;;;;;4.25;2.63;;;;;;;17.48;65.46;101645.41;4993928;28;20555;-92
2021/10/14 00:56:11;;;;;;;4.45;2.92;;;;;;;17.48;65.44;101638.28;4994282;28;20053;-93
2021/10/14 00:58:37;;;;;;;3.50;3.20;;;;;;;17.53;65.38;101645.88;4994182;28;20061;-93
2021/10/14 01:01:04;;;;;;;4.25;2.88;;;;;;;17.53;65.34;101641.41;5012026;28;20049;-93
2021/10/14 01:03:31;;;;;;;3.78;3.20;;;;;;;17.54;65.19;101636.97;5011799;28;20479;-92
2021/10/14 01:05:57;;;;;;;4.45;3.92;;;;;;;17.53;65.03;101638.75;4993503;28;20038;-93
2021/10/14 01:08:22;;;;;;;5.78;3.55;;;;;;;17.56;65.28;101646.50;5011462;28;20084;-93
2021/10/14 01:10:48;;;;;;;4.20;3.80;;;;;;;17.57;65.65;101639.34;5011757;28;20026;-92
2021/10/14 01:13:13;;;;;;;6.65;3.53;;;;;;;17.59;65.61;101640.09;4993895;28;20061;-92
2021/10/14 01:15:39;;;;;;;4.25;3.80;;;;;;;17.64;65.47;101637.94;4994082;28;20128;-92
2021/10/14 01:18:04;;;;;;;4.50;3.85;;;;;;;17.60;65.21;101633.81;4993582;28;20112;-92
2021/10/14 01:20:30;;;;;;;6.03;4.15;;;;;;;17.60;65.00;101636.47;5011070;28;20122;-92
2021/10/14 01:22:55;;;;;;;5.25;4.00;;;;;;;17.59;65.27;101637.44;5011625;28;20026;-92
2021/10/14 01:25:21;;;;;;;4.65;3.30;;;;;;;17.53;65.00;101636.09;5011836;28;20038;-92
2021/10/14 01:27:48;;;;;;;5.05;4.00;;;;;;;17.51;65.11;101632.72;5011805;28;20029;-92
2021/10/14 01:30:14;;;;;;;5.00;3.47;;;;;;;17.40;65.09;101625.59;4996312;28;20041;-92
2021/10/14 01:32:39;;;;;;;4.70;3.30;;;;;;;17.43;64.98;101625.34;5015606;28;20030;-93
2021/10/14 01:35:06;;;;;;;7.30;3.78;;;;;;;17.29;65.44;101622.91;5015055;28;20033;-93
2021/10/14 01:37:32;;;;;;;3.42;3.13;;;;;;;17.31;65.30;101625.47;5015229;28;20042;-92
2021/10/14 01:39:57;;;;;;;5.07;3.47;;;;;;;17.25;65.41;101621.47;5015281;28;20456;-93
2021/10/14 01:42:23;;;;;;;4.30;3.55;;;;;;;17.25;65.77;101626.78;5015533;28;20018;-92
2021/10/14 01:44:48;;;;;;;3.75;3.30;;;;;;;17.18;66.35;101617.56;4997714;28;20037;-93
2021/10/14 01:47:14;;;;;;;3.70;3.40;;;;;;;17.16;66.62;101617.72;5015322;28;20033;-93
2021/10/14 01:49:39;;;;;;;3.50;3.17;;;;;;;17.21;66.70;101614.69;5014759;28;20500;-92
2021/10/14 01:52:04;;;;;;;5.60;3.05;;;;;;;17.25;66.87;101609.03;4997445;28;20026;-92
2021/10/14 01:54:30;;;;;;;4.93;4.10;;;;;;;17.31;67.25;101609.53;5014982;28;20468;-93
2021/10/14 01:56:55;;;;;;;5.70;3.72;;;;;;;17.42;67.25;101615.69;5015133;28;20037;-92
2021/10/14 01:59:20;;;;;;;7.68;3.92;;;;;;;17.45;66.83;101617.25;5015309;28;20072;-92
2021/10/14 02:01:46;;;;;;;4.78;3.60;;;;;;;17.51;66.87;101611.47;4997559;28;20388;-93
2021/10/14 02:04:11;;;;;;;3.80;3.50;;;;;;;17.52;66.60;101607.88;5014720;28;20120;-93
2021/10/14 02:06:36;;;;;;;6.65;4.13;;;;;;;17.53;66.74;101608.69;5014678;28;20034;-93
2021/10/14 02:09:02;;;;;;;3.75;2.72;;;;;;;17.57;66.82;101610.16;5014839;28;20026;-93
2021/10/14 02:11:28;;;;;;;4.07;3.10;;;;;;;17.58;66.86;101606.53;5014920;28;20037;-92
2021/10/14 02:13:53;;;;;;;5.07;3.55;;;;;;;17.66;66.74;101609.44;5014852;28;20358;-93
2021/10/14 02:16:19;;;;;;;4.93;3.30;;;;;;;17.71;66.58;101601.09;5014386;28;20030;-92
2021/10/14 02:18:44;;;;;;;5.40;3.55;;;;;;;17.80;66.52;101600.38;5014694;28;20447;-92
2021/10/14 02:21:10;;;;;;;4.38;3.25;;;;;;;17.83;66.47;101606.31;5014450;28;20037;-93
2021/10/14 02:23:35;;;;;;;4.20;3.50;;;;;;;17.78;66.67;101597.84;5014038;28;20484;-92
2021/10/14 02:26:01;;;;;;;4.57;3.50;;;;;;;17.79;66.36;101604.84;4997077;28;20018;-92
2021/10/14 02:28:26;;;;;;;4.32;3.30;;;;;;;17.82;66.47;101593.97;4996792;28;20022;-93
2021/10/14 02:30:52;;;;;;;4.50;2.95;;;;;;;17.88;66.61;101589.16;5014528;28;20026;-93
2021/10/14 02:33:17;;;;;;;4.07;3.35;;;;;;;17.87;66.46;101580.38;4996829;28;20570;-93
2021/10/14 02:35:42;;;;;;;3.88;3.55;;;;;;;17.92;66.39;101591.44;5013848;28;20033;-93
2021/10/14 02:38:08;;;;;;;5.00;3.47;;;;;;;17.93;66.76;101579.00;5014083;28;20110;-92
2021/10/14 02:40:33;;;;;;;5.88;3.78;;;;;;;18.00;66.84;101591.66;5014169;28;20377;-92
2021/10/14 02:42:59;;;;;;;4.50;3.70;;;;;;;18.02;66.75;101573.78;5014107;28;20030;-93
2021/10/14 02:45:24;;;;;;;5.40;3.58;;;;;;;18.03;66.53;101575.50;5014204;28;20029;-92
2021/10/14 02:47:50;;;;;;;4.57;3.33;;;;;;;18.00;66.51;101575.72;5013891;28;20026;-93
2021/10/14 02:50:15;;;;;;;6.10;4.07;;;;;;;17.94;66.56;101568.25;4996178;28;20024;-93
2021/10/14 02:52:40;;;;;;;4.30;3.75;;;;;;;17.84;66.95;101569.97;5013653;28;20033;-93
2021/10/14 02:55:07;;;;;;;4.72;3.30;;;;;;;17.76;67.79;101583.81;5014043;28;20498;-93
2021/10/14 02:57:32;;;;;;;4.65;3.80;;;;;;;17.84;67.08;101570.81;5013997;28;20080;-94
2021/10/14 02:59:57;;;;;;;4.85;3.22;;;;;;;17.99;66.57;101568.75;4996491;28;20026;-93
2021/10/14 03:02:23;;;;;;;7.43;4.10;;;;;;;18.07;66.70;101573.44;5013755;28;20021;-92
2021/10/14 03:04:48;;;;;;;4.15;3.78;;;;;;;18.08;66.57;101559.16;5013288;28;20057;-92
2021/10/14 03:07:13;;;;;;;6.63;4.22;;;;;;;18.04;66.70;101552.41;5012895;28;20026;-92
2021/10/14 03:09:39;;;;;;;4.13;3.67;;;;;;;18.10;66.74;101567.84;5013085;28;20488;-92
2021/10/14 03:12:04;;;;;;;5.38;4.00;;;;;;;18.07;66.57;101570.78;5013944;28;20030;-92
2021/10/14 03:14:30;;;;;;;5.75;4.07;;;;;;;18.04;66.81;101568.34;5013514;28;20018;-92
2021/10/14 03:16:55;;;;;;;4.82;3.75;;;;;;;17.84;67.73;101565.50;5013450;28;20049;-93
2021/10/14 03:19:20;;;;;;;4.43;3.88;;;;;;;17.83;68.03;101563.81;5013270;28;20026;-92
2021/10/14 03:21:46;;;;;;;4.05;3.65;;;;;;;17.92;67.83;101561.38;5013184;28;20494;-92
2021/10/14 03:24:11;;;;;;;5.38;3.60;;;;;;;18.09;67.26;101563.53;5013258;28;20502;-93
2021/10/14 03:26:36;;;;;;;5.45;4.20;;;;;;;18.10;67.36;101559.88;5013480;28;20080;-92
2021/10/14 03:29:02;;;;;;;5.35;4.38;;;;;;;18.29;66.68;101561.06;5013332;28;20392;-92
2021/10/14 03:31:27;;;;;;;5.15;3.63;;;;;;;18.50;66.19;101574.38;5013509;28;20022;-92
2021/10/14 03:33:53;;;;;;;4.40;4.00;;;;;;;18.49;65.88;101570.03;5012958;28;20065;-92
2021/10/14 03:36:18;;;;;;;6.15;3.85;;;;;;;18.50;65.87;101571.72;5013174;28;20476;-93
2021/10/14 03:38:43;;;;;;;5.38;4.53;;;;;;;18.58;65.58;101570.13;4994902;28;20117;-93
2021/10/14 03:41:09;;;;;;;5.60;4.30;;;;;;;18.57;65.78;101557.78;5013039;28;20018;-92
2021/10/14 03:43:34;;;;;;;6.15;4.18;;;;;;;18.62;65.76;101568.00;4995092;28;20026;-93
2021/10/14 03:45:59;;;;;;;5.45;3.53;;;;;;;18.63;65.60;101565.22;4995539;28;20064;-92
2021/10/14 03:48:25;;;;;;;6.13;4.93;;;;;;;18.43;66.19;101560.75;4995323;28;20030;-93
2021/10/14 03:50:50;;;;;;;6.35;4.65;;;;;;;18.61;65.90;101571.66;5012763;28;20021;-92
2021/10/14 03:53:16;;;;;;;5.68;4.70;;;;;;;18.52;66.06;101561.78;4994589;28;20021;-92
2021/10/14 03:55:41;;;;;;;6.97;4.50;;;;;;;18.32;66.97;101558.97;5012953;28;20030;-92
2021/10/14 03:58:06;;;;;;;5.25;4.55;;;;;;;18.38;67.02;101570.91;5012884;28;20485;-92
2021/10/14 04:00:32;;;;;;;6.32;4.35;;;;;;;18.34;67.08;101559.66;5012915;28;20037;-92
2021/10/14 04:02:57;;;;;;;7.15;5.05;;;;;;;18.22;67.62;101556.22;5012661;28;20058;-93
2021/10/14 04:05:23;;;;;;;4.45;4.05;;;;;;;18.42;66.72;101549.28;5012079;28;20157;-92
2021/10/14 04:07:48;;;;;;;4.57;3.85;;;;;;;18.51;66.55;101554.78;5012371;28;20033;-92
2021/10/14 04:10:14;;;;;;;5.05;4.18;;;;;;;18.48;66.18;101557.69;5012309;28;20080;-92
2021/10/14 04:12:40;;;;;;;10.25;5.20;;;;;;;18.38;66.64;101558.47;5012352;28;20108;-91
2021/10/14 04:15:06;;;;;;;6.93;4.75;;;;;;;18.45;66.66;101555.31;5012595;28;20125;-91
2021/10/14 04:17:31;;;;;;;4.55;3.55;;;;;;;18.38;66.33;101541.66;5012395;28;20480;-91
2021/10/14 04:19:57;;;;;;;5.22;3.75;;;;;;;18.30;66.59;101549.44;5012066;28;20034;-92
2021/10/14 04:22:22;;;;;;;6.75;4.03;;;;;;;18.28;66.20;101546.88;4994717;28;20080;-92
2021/10/14 04:24:48;;;;;;;4.93;3.80;;;;;;;18.37;65.75;101548.78;4994734;28;20041;-92
2021/10/14 04:27:15;;;;;;;4.47;3.90;;;;;;;18.32;65.13;101556.28;5012211;28;20024;-93
2021/10/14 04:29:40;;;;;;;5.07;4.03;;;;;;;18.27;65.17;101552.34;4994361;28;20495;-92
2021/10/14 04:32:10;;;;;;;6.53;4.25;;;;;;;18.20;64.68;101552.00;5012279;28;20030;-91
2021/10/14 04:34:36;;;;;;;8.00;4.00;;;;;;;18.15;64.69;101551.56;4994779;28;20473;-92
2021/10/14 04:37:08;;;;;;;4.63;3.75;;;;;;;18.10;64.37;101554.56;5012233;28;20033;-92
2021/10/14 04:39:35;;;;;;;5.97;4.32;;;;;;;18.01;64.40;101550.03;5012117;28;20108;-92
2021/10/14 04:42:01;;;;;;;4.93;3.92;;;;;;;17.92;64.23;101551.59;4994448;28;20053;-92
2021/10/14 04:44:26;;;;;;;5.93;4.15;;;;;;;17.88;64.58;101557.28;4994216;28;20524;-92
2021/10/14 04:46:52;;;;;;;4.72;3.50;;;;;;;17.82;64.67;101556.78;5011967;28;20041;-92
2021/10/14 04:49:18;;;;;;;6.15;3.97;;;;;;;17.83;64.63;101558.50;5011867;28;20369;-92
2021/10/14 04:51:43;;;;;;;4.55;4.13;;;;;;;17.79;65.04;101546.41;4993842;28;20065;-92
2021/10/14 04:54:08;;;;;;;4.72;4.20;;;;;;;17.60;65.56;101556.81;5011532;28;20476;-92
2021/10/14 04:56:34;;;;;;;5.03;4.47;;;;;;;17.55;65.84;101543.03;5011876;28;20041;-92
2021/10/14 04:58:59;;;;;;;5.63;4.43;;;;;;;17.51;66.26;101541.59;5011826;28;20038;-91
2021/10/14 05:01:24;;;;;;;5.88;4.53;;;;;;;17.49;66.18;101546.19;5011924;28;20034;-91
2021/10/14 05:03:50;;;;;;;5.45;4.20;;;;;;;17.53;66.41;101537.00;4994318;28;20443;-92
2021/10/14 05:06:15;;;;;;;4.78;3.70;;;;;;;17.43;66.86;101537.72;5015512;28;20064;-91
2021/10/14 05:08:41;;;;;;;6.53;4.35;;;;;;;17.58;66.61;101548.13;5015784;28;20460;-92
2021/10/14 05:11:11;;;;;;;4.43;4.03;;;;;;;17.52;66.80;101540.66;5015270;28;20026;-91
2021/10/14 05:13:37;;;;;;;4.13;3.72;;;;;;;17.59;66.65;101545.31;5015960;28;20025;-91
2021/10/14 05:16:02;;;;;;;5.47;3.63;;;;;;;17.50;66.70;101539.91;5015878;28;20030;-92
2021/10/14 05:18:27;;;;;;;4.45;3.67;;;;;;;17.49;67.15;101540.88;5015782;28;20121;-92
2021/10/14 05:20:53;;;;;;;7.30;3.97;;;;;;;17.49;67.36;101535.56;5015912;28;20026;-92
2021/10/14 05:23:18;;;;;;;3.92;3.47;;;;;;;17.50;66.97;101531.97;4997693;28;20369;-92
2021/10/14 05:25:43;;;;;;;4.10;3.30;;;;;;;17.50;67.14;101537.25;4997575;28;20061;-92
2021/10/14 05:28:09;;;;;;;2.97;2.67;;;;;;;17.50;66.90;101535.44;4998011;28;20476;-91
2021/10/14 05:30:34;;;;;;;4.00;2.55;;;;;;;17.54;67.29;101536.06;5014684;28;20017;-92
2021/10/14 05:33:00;;;;;;;4.43;2.97;;;;;;;17.64;66.98;101542.31;4997178;28;20030;-92
2021/10/14 05:35:25;;;;;;;5.78;3.28;;;;;;;17.44;67.10;101543.91;5014836;28;20026;-92
2021/10/14 05:37:50;;;;;;;3.67;2.60;;;;;;;17.47;67.20;101540.16;5015426;28;20392;-93
2021/10/14 05:40:16;;;;;;;3.67;2.67;;;;;;;17.58;66.51;101538.34;4997624;28;20029;-91
2021/10/14 05:42:41;;;;;;;8.30;2.85;;;;;;;17.55;66.46;101538.56;5015054;28;20503;-92
2021/10/14 05:45:07;;;;;;;4.07;2.20;;;;;;;17.60;66.41;101531.09;5014820;28;20036;-93
2021/10/14 05:47:33;;;;;;;4.80;2.88;;;;;;;17.52;66.05;101533.50;5014947;28;20080;-92
2021/10/14 05:49:59;;;;;;;4.00;1.85;;;;;;;17.60;65.66;101524.94;5014587;28;20030;-91
2021/10/14 05:52:25;;;;;;;4.50;2.28;;;;;;;17.54;65.65;101530.75;5015953;28;20025;-92
2021/10/14 05:54:50;;;;;;;2.22;2.03;;;;;;;17.44;65.92;101539.44;5017877;28;20569;-92
2021/10/14 05:57:15;;;;;;;7.38;2.45;;;;;;;17.37;65.73;101522.28;4999308;28;20494;-93
2021/10/14 05:59:41;;;;;;;4.55;1.88;;;;;;;17.45;65.20;101538.44;4997061;28;20057;-93
2021/10/14 06:02:06;;;;;;;3.20;1.70;;;;;;;17.50;65.48;101534.63;5014308;28;20583;-92
2021/10/14 06:04:31;;;;;;;4.25;2.10;;;;;;;17.54;65.28;101536.88;5014446;28;20041;-94
2021/10/14 06:06:57;;;;;;;2.20;1.45;;;;;;;17.56;65.32;101534.13;5014214;28;20036;-94
2021/10/14 06:09:22;;;;;;;2.10;1.60;;;;;;;17.58;65.25;101537.50;4997304;28;20384;-93
2021/10/14 06:11:48;;;;;;;1.90;1.70;;;;;;;17.58;65.51;101532.19;5015365;28;20021;-94
2021/10/14 06:14:15;;;;;;;3.28;2.28;;;;;;;17.60;64.57;101527.59;4997071;28;20059;-94
2021/10/14 06:16:40;;;;;;;4.35;2.17;;;;;;;17.55;64.78;101522.63;5014101;28;20030;-94
2021/10/14 06:19:05;;;;;;;2.45;2.08;;;;;;;17.44;64.78;101522.66;4997121;28;20026;-93
2021/10/14 06:21:31;;;;;;;4.68;2.17;;;;;;;17.48;64.26;101525.94;4996885;28;20141;-94
2021/10/14 06:23:56;;;;;;;3.08;2.10;;;;;;;17.55;64.36;101530.59;5014436;28;20062;-92
2021/10/14 06:26:22;;;;;;;3.33;2.00;;;;;;;17.42;63.22;101522.78;5014519;28;20108;-93
2021/10/14 06:28:47;;;;;;;4.50;2.90;;;;;;;17.41;63.91;101512.28;5014587;28;20065;-94
2021/10/14 06:31:13;;;;;;;3.30;2.10;;;;;;;17.53;63.75;101526.38;4995389;28;20056;-92
2021/10/14 06:33:38;;;;;;;4.20;2.30;;;;;;;17.50;64.23;101516.03;4998333;28;20045;-94
2021/10/14 06:36:04;;;;;;;2.63;1.90;;;;;;;17.50;63.76;101521.34;5012178;28;20115;-94
2021/10/14 06:38:29;;;;;;;4.18;1.85;;;;;;;17.46;64.18;101523.38;4995034;28;20025;-93
2021/10/14 06:40:54;;;;;;;2.97;1.92;;;;;;;17.50;63.90;101519.50;5012921;28;20088;-93
2021/10/14 06:43:20;;;;;;;2.30;2.10;;;;;;;17.38;64.00;101516.03;5012785;28;20030;-93
2021/10/14 06:45:45;;;;;;;6.78;2.65;;;;;;;17.46;64.01;101518.06;5009623;28;20026;-93
2021/10/14 06:48:11;;;;;;;3.05;2.40;;;;;;;17.44;64.07;101514.69;5011447;28;20049;-93
2021/10/14 06:50:36;;;;;;;4.53;2.10;;;;;;;17.48;64.07;101520.63;5012558;28;20472;-94
2021/10/14 06:53:03;;;;;;;2.75;1.67;;;;;;;17.51;63.63;101520.34;5012734;28;20026;-94
2021/10/14 06:55:28;;;;;;;4.45;1.95;;;;;;;17.41;63.90;101507.81;5012740;28;20408;-95
2021/10/14 06:57:54;;;;;;;3.80;2.15;;;;;;;17.44;63.93;101506.72;5012580;28;20018;-93
2021/10/14 07:00:22;;;;;;;3.00;1.85;;;;;;;17.60;63.72;101514.31;5012877;28;20105;-94
2021/10/14 07:02:50;;;;;;;1.80;1.70;;;;;;;17.53;63.41;101502.47;4994844;28;20045;-93
2021/10/14 07:05:16;;;;;;;6.07;2.42;;;;;;;17.55;62.97;101497.91;5014400;28;20219;-94
2021/10/14 07:07:41;;;;;;;5.03;1.83;;;;;;;17.62;63.18;101507.91;5012798;28;20042;-94
2021/10/14 07:10:10;;;;;;;2.78;1.80;;;;;;;17.71;63.11;101506.31;5012768;28;20366;-94
2021/10/14 07:12:39;;;;;;;3.83;1.92;;;;;;;17.74;63.23;101514.03;4995727;28;20022;-95
2021/10/14 07:15:05;;;;;;;1.73;1.48;;;;;;;17.76;62.92;101503.31;4995256;28;20113;-94
2021/10/14 07:17:31;;;;;;;2.35;1.65;;;;;;;17.92;62.93;101516.22;5012206;28;20030;-94
2021/10/14 07:19:56;;;;;;;2.03;1.52;;;;;;;18.02;62.52;101515.31;5012684;28;20026;-95
2021/10/14 07:22:21;;;;;;;6.43;2.28;;;;;;;18.00;61.64;101516.44;4994937;28;20029;-94
2021/10/14 07:24:47;;;;;;;4.82;2.00;;;;;;;18.19;61.50;101511.28;4994794;28;20496;-95
2021/10/14 07:27:13;;;;;;;6.72;1.88;;;;;;;18.31;60.68;101519.22;5011640;28;20022;-93
2021/10/14 07:29:38;;;;;;;3.53;1.70;;;;;;;18.34;61.12;101510.97;4994823;28;20030;-94
2021/10/14 07:32:07;;;;;;;2.38;1.67;;;;;;;18.38;60.36;101525.69;4994693;28;20068;-94
2021/10/14 07:34:34;;;;;;;3.63;2.05;;;;;;;18.53;60.45;101523.59;4995710;28;20022;-95
2021/10/14 07:36:59;;;;;;;5.03;2.33;;;;;;;18.49;59.79;101509.69;4995378;28;20026;-94
2021/10/14 07:39:25;;;;;;;4.03;2.00;;;;;;;18.81;59.02;101503.50;4995808;28;20373;-94
2021/10/14 07:41:50;;;;;;;6.32;2.10;;;;;;;19.07;58.59;101508.41;5012927;28;20450;-94
2021/10/14 07:44:17;;;;;;;4.68;2.00;;;;;;;19.44;57.36;101505.19;4995405;28;20033;-95
2021/10/14 07:46:43;;;;;;;6.50;1.80;;;;;;;19.81;56.26;101511.63;4995550;28;20021;-95
2021/10/14 07:49:09;;;;;;;4.75;1.67;;;;;;;20.35;55.50;101505.91;4995800;28;20399;-94
2021/10/14 07:51:35;;;;;;;4.65;1.88;;;;;;;20.64;53.39;101497.91;4995668;28;20018;-94
2021/10/14 07:54:04;;;;;;;4.18;1.90;;;;;;;20.82;52.52;101505.16;5013207;28;20025;-95
2021/10/14 07:56:29;;;;;;;2.42;1.30;;;;;;;21.66;52.39;101494.41;4995536;28;20045;-94
2021/10/14 07:58:54;;;;;;;4.68;1.90;;;;;;;21.60;51.27;101495.00;4994880;28;20452;-95
2021/10/14 08:01:20;;;;;;;6.38;1.95;;;;;;;21.48;51.05;101496.22;5013104;28;20026;-95
2021/10/14 08:03:46;;;;;;;4.07;2.05;;;;;;;20.58;53.30;101499.28;4996192;28;20084;-95
2021/10/14 08:06:12;;;;;;;4.63;1.95;;;;;;;20.91;51.79;101493.59;4996627;28;20107;-95
2021/10/14 08:08:37;;;;;;;4.35;2.42;;;;;;;21.54;51.64;101487.59;5013181;28;20457;-95
2021/10/14 08:11:03;;;;;;;3.45;1.90;;;;;;;21.44;51.54;101489.47;5012946;28;20445;-96
2021/10/14 08:13:28;;;;;;;4.75;1.98;;;;;;;21.96;50.05;101501.25;4994503;28;20123;-96
2021/10/14 08:15:54;;;;;;;4.25;1.95;;;;;;;22.17;49.26;101492.91;4994632;28;20376;-95
2021/10/14 08:18:22;;;;;;;2.30;1.65;;;;;;;22.35;49.62;101500.09;4994830;28;20189;-95
2021/10/14 08:20:49;;;;;;;4.93;2.00;;;;;;;22.15;50.10;101500.25;4994324;28;20050;-95
2021/10/14 08:23:16;;;;;;;5.90;1.92;;;;;;;23.18;47.24;101496.97;5011506;28;20399;-94
2021/10/14 08:25:42;;;;;;;3.70;1.90;;;;;;;23.12;48.68;101497.63;5011577;28;20472;-94
2021/10/14 08:28:08;;;;;;;5.10;2.10;;;;;;;24.06;45.58;101499.28;5011294;28;20080;-94
2021/10/14 08:30:33;;;;;;;3.00;1.50;;;;;;;25.06;44.82;101498.16;5012042;28;20040;-93
2021/10/14 08:32:58;;;;;;;6.45;1.70;;;;;;;25.72;42.91;101496.06;4994727;28;20079;-94
2021/10/14 08:35:24;;;;;;;5.32;1.60;;;;;;;26.33;42.13;101506.91;5012743;28;20487;-96
2021/10/14 08:37:49;;;;;;;4.78;1.70;;;;;;;27.86;39.33;101500.97;4995052;28;20025;-96
2021/10/14 08:40:15;;;;;;;5.18;1.60;;;;;;;27.38;39.96;101497.09;4995124;28;20030;-96
2021/10/14 08:42:41;;;;;;;2.53;1.20;;;;;;;28.36;38.44;101497.47;4994364;28;20396;-96
2021/10/14 08:45:11;;;;;;;3.10;1.42;;;;;;;28.57;36.78;101493.94;4995959;28;20029;-95
2021/10/14 08:47:38;;;;;;;2.83;1.40;;;;;;;29.87;35.69;101488.75;4995161;28;20030;-96
2021/10/14 08:50:05;;;;;;;2.17;1.50;;;;;;;30.57;35.04;101481.91;4995190;28;20054;-96
2021/10/14 08:52:30;;;;;;;4.40;1.50;;;;;;;30.03;35.16;101482.94;4994375;28;20088;-96
2021/10/14 08:54:57;;;;;;;3.20;1.42;;;;;;;31.52;33.22;101484.13;4994898;28;20461;-96
2021/10/14 08:57:23;;;;;;;4.47;1.90;;;;;;;31.12;33.10;101486.97;4994935;28;20022;-95
2021/10/14 08:59:48;;;;;;;4.63;1.90;;;;;;;31.73;31.95;101477.50;4989213;28;20489;-95
2021/10/14 09:02:19;;;;;;;3.45;1.23;;;;;;;32.81;30.90;101489.19;4994714;28;20120;-95
2021/10/14 09:04:47;;;;;;;4.22;1.13;;;;;;;33.45;29.32;101481.50;4994591;28;20030;-96
2021/10/14 09:07:14;;;;;;;3.20;1.00;;;;;;;33.63;28.73;101474.38;4994633;28;20072;-95
2021/10/14 09:09:41;;;;;;;5.32;0.82;;;;;;;34.18;29.23;101476.88;4994240;28;20184;-95
2021/10/14 09:12:08;;;;;;;4.53;1.63;;;;;;;33.62;28.70;101476.28;5011659;28;20022;-94
2021/10/14 09:14:34;;;;;;;2.53;1.00;;;;;;;33.76;28.91;101475.00;4993948;28;20125;-96
2021/10/14 09:16:59;;;;;;;2.90;1.08;;;;;;;33.72;28.51;101471.09;4994445;28;20026;-95
2021/10/14 09:19:25;;;;;;;2.05;1.20;;;;;;;33.17;29.16;101476.66;4993881;28;20026;-95
2021/10/14 09:22:01;;;;;;;2.72;1.10;;;;;;;34.07;28.65;101474.97;4993986;28;20109;-95
2021/10/14 09:24:37;;;;;;;4.85;1.50;;;;;;;33.69;28.86;101463.41;5011209;28;20034;-95
2021/10/14 09:27:11;;;;;;;2.97;1.25;;;;;;;34.76;28.20;101462.41;4992917;28;20033;-95
2021/10/14 09:29:38;;;;;;;1.88;0.90;;;;;;;34.14;28.63;101460.19;5011502;28;20076;-95
2021/10/14 09:32:07;;;;;;;3.75;1.35;;;;;;;33.52;28.96;101452.28;5011867;28;20037;-96
2021/10/14 09:34:36;;;;;;;2.53;1.20;;;;;;;31.26;31.49;101462.50;4994215;28;20396;-95
2021/10/14 09:37:06;;;;;;;2.70;1.20;;;;;;;31.89;30.45;101465.28;5011421;28;20104;-94
2021/10/14 09:39:32;;;;;;;4.85;1.80;;;;;;;32.86;29.06;101459.44;5011618;28;20100;-96
2021/10/14 09:41:58;;;;;;;4.20;2.33;;;;;;;31.71;31.05;101459.78;4994220;28;20569;-94
2021/10/14 09:44:24;;;;;;;3.60;1.60;;;;;;;32.67;30.44;101465.91;4993764;28;20040;-94
2021/10/14 09:46:56;;;;;;;4.90;1.70;;;;;;;32.14;31.07;101449.03;4994071;28;20022;-96
2021/10/14 09:49:30;;;;;;;4.72;2.08;;;;;;;31.06;32.00;101460.72;5011883;28;20472;-96
2021/10/14 09:52:00;;;;;;;3.97;1.70;;;;;;;30.04;32.33;101449.41;4997071;28;20121;-94
2021/10/14 09:54:26;;;;;;;6.95;2.75;;;;;;;30.12;33.13;101442.94;4997974;28;20386;-95
2021/10/14 09:56:52;;;;;;;9.48;2.70;;;;;;;30.59;32.59;101449.16;4997919;28;20033;-96
2021/10/14 09:59:18;;;;;;;7.57;3.08;;;;;;;30.11;33.31;101443.97;5015048;28;20018;-94
2021/10/14 10:01:43;;;;;;;4.35;1.88;;;;;;;28.80;35.53;101445.84;5015166;28;20036;-95
2021/10/14 10:04:09;;;;;;;4.25;1.75;;;;;;;29.15;34.25;101443.16;4997806;28;20124;-95
2021/10/14 10:06:37;;;;;;;3.75;1.58;;;;;;;29.36;34.42;101433.22;4997508;28;20057;-95
2021/10/14 10:09:25;;;;;;;5.45;1.70;;;;;;;29.72;34.27;101432.06;4997324;28;20030;-95
2021/10/14 10:11:54;;;;;;;5.03;2.40;;;;;;;30.49;32.57;101418.94;4996717;28;20040;-96
2021/10/14 10:14:22;;;;;;;4.75;2.15;;;;;;;31.50;32.06;101425.66;4997792;28;20108;-96
2021/10/14 10:16:59;;;;;;;4.25;2.17;;;;;;;31.31;32.45;101422.00;5014906;28;20025;-95
2021/10/14 10:19:49;;;;;;;3.08;1.80;;;;;;;31.51;32.11;101420.03;4997473;28;20109;-96
2021/10/14 10:22:50;;;;;;;3.00;1.45;;;;;;;30.49;32.75;101414.38;4997320;28;20037;-95
2021/10/14 10:25:24;;;;;;;2.63;1.02;;;;;;;30.32;32.52;101421.28;4945549;28;20069;-96
2021/10/14 10:27:51;;;;;;;3.85;1.45;;;;;;;30.64;32.22;101414.13;4997132;28;20030;-96
2021/10/14 10:30:37;;;;;;;5.47;1.65;;;;;;;30.24;31.75;101409.59;5014724;28;20030;-94
2021/10/14 10:33:03;;;;;;;2.58;0.93;;;;;;;28.87;33.51;101411.59;4997050;28;20022;-95
2021/10/14 10:35:49;;;;;;;2.47;0.90;;;;;;;29.77;32.93;101407.94;5014736;28;20025;-96
2021/10/14 10:38:19;;;;;;;3.28;1.00;;;;;;;29.38;33.56;101404.09;4996417;28;20524;-96
2021/10/14 10:40:48;;;;;;;3.13;0.80;;;;;;;29.84;33.11;101404.19;4997171;28;20029;-95
2021/10/14 10:43:28;;;;;;;4.63;2.35;;;;;;;29.47;33.60;101397.47;4996969;28;20389;-95
2021/10/14 10:45:56;;;;;;;1.98;0.77;;;;;;;30.01;33.02;101398.34;4997074;28;20480;-95
2021/10/14 10:48:40;;;;;;;6.18;1.15;;;;;;;30.59;32.97;101394.94;5014544;28;20041;-96
2021/10/14 10:51:26;;;;;;;3.35;0.82;;;;;;;30.70;31.75;101388.03;4996894;28;20025;-94
2021/10/14 10:53:52;;;;;;;2.85;0.98;;;;;;;30.13;33.32;101376.88;4997474;28;20042;-96
2021/10/14 10:56:33;;;;;;;4.20;0.85;;;;;;;31.37;31.28;101385.84;4998680;28;20029;-96
2021/10/14 10:59:00;;;;;;;3.55;1.00;;;;;;;31.75;30.60;101379.56;4998992;28;20430;-93
2021/10/14 11:01:26;;;;;;;2.50;1.10;;;;;;;30.98;31.62;101380.44;5013685;28;20022;-94
2021/10/14 11:03:59;;;;;;;3.60;1.10;;;;;;;30.84;31.60;101374.19;4995927;28;20030;-93
2021/10/14 11:06:35;;;;;;;4.43;0.90;;;;;;;30.63;31.97;101371.81;5014158;28;20092;-93
2021/10/14 11:09:05;;;;;;;4.10;1.00;;;;;;;31.13;30.78;101366.59;4999172;28;20038;-96
2021/10/14 11:11:30;;;;;;;3.45;0.85;;;;;;;30.92;31.20;101364.19;4996799;28;20104;-96
2021/10/14 11:13:56;;;;;;;8.05;1.20;;;;;;;30.18;32.34;101364.38;4996093;28;20488;-94
2021/10/14 11:16:27;;;;;;;2.70;0.80;;;;;;;30.25;32.86;101369.78;4996163;28;20018;-94
2021/10/14 11:18:55;;;;;;;3.50;1.02;;;;;;;30.39;30.91;101355.22;5014037;28;20495;-94
2021/10/14 11:21:22;;;;;;;2.08;0.82;;;;;;;29.64;32.42;101355.44;4996939;28;20034;-94